Time;durP1;ratioP1;P1;durP2;ratioP2;P2;SDS_P1;SDS_P2;PMS_P1;PMS_P2;Temp;Humidity;BMP_temperature;BMP_pressure;BME280_temperature;BME280_humidity;BME280_pressure;Samples;Min_cycle;Max_cycle;Signal;HPM_P1;HPM_P2
2021/08/21 00:01:46;;;;;;;4.33;4.03;;;16.70;99.90;;;;;;5055553;28;20205;-65
2021/08/21 00:04:15;;;;;;;3.70;3.40;;;16.70;99.90;;;;;;5069041;28;20562;-62
2021/08/21 00:06:41;;;;;;;4.60;4.20;;;16.70;99.90;;;;;;5075237;28;20244;-64
2021/08/21 00:09:06;;;;;;;4.90;4.10;;;16.80;99.90;;;;;;5075210;28;20431;-62
2021/08/21 00:11:32;;;;;;;3.47;3.27;;;16.80;99.90;;;;;;5071105;28;20420;-65
2021/08/21 00:13:58;;;;;;;4.63;4.23;;;16.80;99.90;;;;;;5055269;28;20636;-62
2021/08/21 00:16:23;;;;;;;4.30;3.90;;;16.70;99.90;;;;;;5055355;28;20422;-65
2021/08/21 00:18:49;;;;;;;4.17;3.77;;;16.70;99.90;;;;;;5054250;28;20221;-64
2021/08/21 00:21:15;;;;;;;4.73;4.33;;;16.70;99.90;;;;;;5054319;28;20201;-64
2021/08/21 00:23:41;;;;;;;4.83;3.97;;;16.60;99.90;;;;;;5055256;28;20211;-64
2021/08/21 00:26:07;;;;;;;3.97;3.57;;;16.60;99.90;;;;;;5057881;28;20180;-64
2021/08/21 00:28:33;;;;;;;4.70;4.37;;;16.60;99.90;;;;;;5074448;28;20475;-64
2021/08/21 00:30:59;;;;;;;4.83;3.90;;;16.60;99.90;;;;;;5074875;28;20200;-65
2021/08/21 00:33:24;;;;;;;5.20;4.80;;;16.60;99.90;;;;;;5074773;28;20179;-62
2021/08/21 00:35:50;;;;;;;4.17;3.87;;;16.50;99.90;;;;;;5073567;28;20663;-63
2021/08/21 00:38:16;;;;;;;4.20;3.90;;;16.50;99.90;;;;;;5074323;28;20220;-62
2021/08/21 00:40:41;;;;;;;4.10;3.70;;;16.50;99.90;;;;;;5074295;28;20207;-65
2021/08/21 00:43:07;;;;;;;4.70;4.40;;;16.50;99.90;;;;;;5074655;28;20437;-63
2021/08/21 00:45:33;;;;;;;4.17;3.77;;;16.50;99.90;;;;;;5074552;28;20203;-63
2021/08/21 00:48:02;;;;;;;4.63;4.13;;;16.40;99.90;;;;;;5074069;28;20220;-65
2021/08/21 00:50:29;;;;;;;4.80;4.30;;;16.40;99.90;;;;;;5074908;28;20530;-63
2021/08/21 00:52:54;;;;;;;4.50;4.10;;;16.30;99.90;;;;;;5074546;28;20414;-65
2021/08/21 00:55:20;;;;;;;4.43;4.03;;;16.30;99.90;;;;;;5067780;28;20767;-62
2021/08/21 00:57:46;;;;;;;4.97;4.57;;;16.30;99.90;;;;;;5052723;28;20228;-64
2021/08/21 01:00:12;;;;;;;5.57;5.07;;;16.20;99.90;;;;;;5054302;28;20536;-64
2021/08/21 01:02:40;;;;;;;4.87;4.40;;;16.20;99.90;;;;;;5054355;28;20197;-64
2021/08/21 01:05:08;;;;;;;5.47;5.00;;;16.10;99.90;;;;;;5054390;28;20510;-63
2021/08/21 01:07:35;;;;;;;4.63;4.23;;;16.10;99.90;;;;;;5053703;28;20419;-64
2021/08/21 01:10:06;;;;;;;4.50;4.10;;;16.00;99.90;;;;;;5053977;28;20421;-63
2021/08/21 01:12:34;;;;;;;5.50;5.00;;;16.00;99.90;;;;;;5053270;28;20427;-62
2021/08/21 01:15:00;;;;;;;6.73;5.10;;;15.90;99.90;;;;;;5054085;28;20415;-66
2021/08/21 01:17:27;;;;;;;4.80;4.40;;;15.80;99.90;;;;;;5065136;28;20423;-64
2021/08/21 01:19:52;;;;;;;4.90;4.40;;;15.70;99.90;;;;;;5073850;28;20499;-65
2021/08/21 01:22:25;;;;;;;4.20;3.90;;;15.70;99.90;;;;;;5072546;28;20498;-63
2021/08/21 01:24:53;;;;;;;4.37;4.07;;;15.60;99.90;;;;;;5074025;28;20500;-66
2021/08/21 01:27:33;;;;;;;5.67;4.47;;;15.60;99.90;;;;;;5073419;28;20378;-62
2021/08/21 01:30:00;;;;;;;4.40;4.00;;;15.50;99.90;;;;;;5073723;28;20422;-63
2021/08/21 01:32:27;;;;;;;4.43;4.03;;;15.50;99.90;;;;;;5073425;28;20834;-62
2021/08/21 01:34:54;;;;;;;5.63;4.20;;;15.50;99.90;;;;;;5073810;28;20501;-64
2021/08/21 01:37:21;;;;;;;4.80;3.63;;;15.50;99.90;;;;;;5072675;28;20505;-65
2021/08/21 01:39:49;;;;;;;4.90;4.40;;;15.50;99.90;;;;;;5073364;28;20430;-64
2021/08/21 01:42:15;;;;;;;4.90;4.40;;;15.50;99.90;;;;;;5073610;28;20418;-63
2021/08/21 01:44:41;;;;;;;4.27;3.60;;;15.50;99.90;;;;;;5073782;28;20399;-65
2021/08/21 01:47:08;;;;;;;4.40;4.00;;;15.40;99.90;;;;;;5073132;28;20172;-62
2021/08/21 01:49:33;;;;;;;5.50;4.10;;;15.40;99.90;;;;;;5073402;28;20434;-64
2021/08/21 01:52:04;;;;;;;6.10;5.47;;;15.40;99.90;;;;;;5061169;28;20907;-62
2021/08/21 01:54:30;;;;;;;4.20;3.90;;;15.40;99.90;;;;;;5053430;28;20173;-65
2021/08/21 01:57:00;;;;;;;4.03;3.73;;;15.40;99.90;;;;;;5053155;28;20402;-63
2021/08/21 01:59:35;;;;;;;3.90;3.60;;;15.40;99.90;;;;;;5053397;28;20583;-64
2021/08/21 02:02:03;;;;;;;4.00;3.70;;;15.40;99.90;;;;;;5053195;28;20493;-63
2021/08/21 02:04:29;;;;;;;5.23;4.37;;;15.40;99.90;;;;;;5054312;28;20483;-64
2021/08/21 02:06:54;;;;;;;5.23;4.30;;;15.30;99.90;;;;;;5072967;28;20498;-62
2021/08/21 02:09:23;;;;;;;4.90;4.50;;;15.30;99.90;;;;;;5073439;28;20653;-65
2021/08/21 02:11:51;;;;;;;3.97;3.60;;;15.30;99.90;;;;;;5073386;28;20188;-64
2021/08/21 02:14:18;;;;;;;8.37;4.47;;;15.30;99.90;;;;;;5073178;28;20483;-65
2021/08/21 02:16:47;;;;;;;4.63;3.70;;;15.30;99.90;;;;;;5072763;28;20865;-65
2021/08/21 02:19:12;;;;;;;6.50;4.20;;;15.30;99.90;;;;;;5072655;28;20455;-64
2021/08/21 02:21:38;;;;;;;4.43;4.13;;;15.30;99.90;;;;;;5073190;28;20445;-64
2021/08/21 02:24:05;;;;;;;3.80;3.50;;;15.30;99.90;;;;;;5073412;28;20175;-62
2021/08/21 02:26:36;;;;;;;3.83;3.53;;;15.30;99.90;;;;;;5072842;28;20513;-64
2021/08/21 02:29:02;;;;;;;4.90;4.50;;;15.30;99.90;;;;;;5073131;28;20423;-63
2021/08/21 02:31:28;;;;;;;6.87;4.20;;;15.30;99.90;;;;;;5072951;28;20480;-64
2021/08/21 02:33:54;;;;;;;5.40;5.00;;;15.30;99.90;;;;;;5072336;28;20388;-62
2021/08/21 02:36:19;;;;;;;3.90;3.60;;;15.30;99.90;;;;;;5052850;28;20180;-65
2021/08/21 02:38:46;;;;;;;3.97;3.67;;;15.30;99.90;;;;;;5052679;28;20200;-62
2021/08/21 02:41:12;;;;;;;4.17;3.80;;;15.30;99.90;;;;;;5053184;28;20197;-65
2021/08/21 02:43:38;;;;;;;4.93;4.50;;;15.30;99.90;;;;;;5054831;28;20458;-63
2021/08/21 02:46:04;;;;;;;4.47;4.07;;;15.40;99.90;;;;;;5055681;28;20478;-64
2021/08/21 02:48:30;;;;;;;4.13;3.87;;;15.40;99.90;;;;;;5055208;28;20277;-64
2021/08/21 02:50:56;;;;;;;5.53;4.23;;;15.40;99.90;;;;;;5056634;28;20195;-62
2021/08/21 02:53:21;;;;;;;5.10;4.70;;;15.50;99.90;;;;;;5056892;28;20445;-63
2021/08/21 02:55:47;;;;;;;5.10;4.67;;;15.50;99.90;;;;;;5056940;28;20420;-63
2021/08/21 02:58:13;;;;;;;3.60;3.33;;;15.50;99.90;;;;;;5056291;28;20280;-67
2021/08/21 03:00:41;;;;;;;4.10;3.80;;;15.50;99.90;;;;;;5056674;28;20205;-62
2021/08/21 03:03:06;;;;;;;4.53;4.10;;;15.50;99.90;;;;;;5073196;28;20230;-65
2021/08/21 03:05:32;;;;;;;4.80;4.43;;;15.60;99.90;;;;;;5076424;28;20804;-63
2021/08/21 03:07:57;;;;;;;4.30;3.90;;;15.60;99.90;;;;;;5075976;28;20204;-65
2021/08/21 03:10:23;;;;;;;4.83;4.33;;;15.60;99.90;;;;;;5075425;28;20206;-62
2021/08/21 03:12:49;;;;;;;4.07;3.70;;;15.50;99.90;;;;;;5075181;28;20180;-66
2021/08/21 03:15:14;;;;;;;4.30;3.90;;;15.50;99.90;;;;;;5076190;28;20626;-62
2021/08/21 03:17:40;;;;;;;4.17;3.77;;;15.40;99.90;;;;;;5075564;28;20180;-63
2021/08/21 03:20:06;;;;;;;3.97;3.67;;;15.40;99.90;;;;;;5076061;28;20650;-62
2021/08/21 03:22:32;;;;;;;4.17;3.77;;;15.30;99.90;;;;;;5074944;28;20531;-63
2021/08/21 03:24:57;;;;;;;4.90;3.57;;;15.30;99.90;;;;;;5076403;28;20417;-64
2021/08/21 03:27:23;;;;;;;4.27;3.87;;;15.30;99.90;;;;;;5075852;28;20665;-64
2021/08/21 03:29:49;;;;;;;3.90;3.60;;;15.20;99.90;;;;;;5074638;28;20274;-65
2021/08/21 03:32:17;;;;;;;4.50;3.77;;;15.20;99.90;;;;;;5055901;28;20322;-61
2021/08/21 03:34:44;;;;;;;4.73;4.33;;;15.20;99.90;;;;;;5056248;28;20183;-65
2021/08/21 03:37:10;;;;;;;4.30;3.90;;;15.10;99.90;;;;;;5055658;28;20411;-62
2021/08/21 03:39:37;;;;;;;3.60;3.30;;;15.00;99.90;;;;;;5055838;28;20552;-64
2021/08/21 03:42:03;;;;;;;5.17;4.67;;;15.00;99.90;;;;;;5055806;28;20988;-64
2021/08/21 03:44:29;;;;;;;3.70;3.40;;;15.00;99.90;;;;;;5054953;28;20911;-63
2021/08/21 03:46:54;;;;;;;6.60;3.60;;;15.00;99.90;;;;;;5056134;28;20430;-63
2021/08/21 03:49:20;;;;;;;4.00;3.70;;;15.00;99.90;;;;;;5064444;28;20195;-63
2021/08/21 03:51:46;;;;;;;5.17;4.77;;;14.90;99.90;;;;;;5075802;28;20180;-65
2021/08/21 03:54:11;;;;;;;4.63;4.23;;;14.90;99.90;;;;;;5075533;28;20176;-63
2021/08/21 03:56:37;;;;;;;4.43;4.03;;;14.80;99.90;;;;;;5075446;28;20530;-61
2021/08/21 03:59:04;;;;;;;5.00;4.50;;;14.80;99.90;;;;;;5075617;28;20192;-62
2021/08/21 04:01:30;;;;;;;4.40;4.00;;;14.80;99.90;;;;;;5055923;28;20207;-65
2021/08/21 04:03:55;;;;;;;4.53;3.83;;;14.80;99.90;;;;;;5055607;28;20408;-62
2021/08/21 04:06:21;;;;;;;4.30;3.90;;;14.80;99.90;;;;;;5055596;28;20419;-64
2021/08/21 04:08:47;;;;;;;5.80;3.63;;;14.80;99.90;;;;;;5055060;28;20199;-63
2021/08/21 04:11:12;;;;;;;4.10;3.77;;;14.70;99.90;;;;;;5055373;28;20538;-62
2021/08/21 04:13:38;;;;;;;4.60;4.30;;;14.70;99.90;;;;;;5055380;28;20176;-65
2021/08/21 04:16:04;;;;;;;3.93;3.63;;;14.70;99.90;;;;;;5072000;28;20622;-65
2021/08/21 04:18:29;;;;;;;4.70;3.83;;;14.70;99.90;;;;;;5054654;28;20196;-62
2021/08/21 04:20:55;;;;;;;4.87;4.47;;;14.70;99.90;;;;;;5055058;28;20487;-65
2021/08/21 04:23:21;;;;;;;4.70;4.30;;;14.70;99.90;;;;;;5053758;28;20208;-64
2021/08/21 04:25:46;;;;;;;4.70;4.30;;;14.70;99.90;;;;;;5055248;28;20650;-64
2021/08/21 04:28:12;;;;;;;5.60;5.10;;;14.70;99.90;;;;;;5054542;28;20239;-64
2021/08/21 04:30:38;;;;;;;4.40;4.10;;;14.60;99.90;;;;;;5054547;28;20181;-64
2021/08/21 04:33:03;;;;;;;4.20;3.80;;;14.60;99.90;;;;;;5054873;28;20512;-65
2021/08/21 04:35:29;;;;;;;4.63;4.23;;;14.70;99.90;;;;;;5054956;28;20418;-63
2021/08/21 04:37:55;;;;;;;3.87;3.57;;;14.70;99.90;;;;;;5054286;28;20184;-63
2021/08/21 04:40:22;;;;;;;4.20;3.80;;;14.70;99.90;;;;;;5054848;28;20197;-62
2021/08/21 04:42:48;;;;;;;4.83;4.40;;;14.70;99.90;;;;;;5054750;28;20210;-63
2021/08/21 04:45:13;;;;;;;6.23;4.77;;;14.70;99.90;;;;;;5069209;28;20397;-64
2021/08/21 04:47:39;;;;;;;4.37;4.00;;;14.70;99.90;;;;;;5074248;28;20417;-64
2021/08/21 04:50:06;;;;;;;4.43;4.07;;;14.80;99.90;;;;;;5074424;28;20194;-64
2021/08/21 04:52:32;;;;;;;4.60;4.20;;;14.80;99.90;;;;;;5074469;28;20176;-62
2021/08/21 04:54:58;;;;;;;4.50;4.10;;;15.00;99.90;;;;;;5074756;28;20406;-62
2021/08/21 04:57:24;;;;;;;4.07;3.70;;;15.00;99.90;;;;;;5074267;28;20485;-64
2021/08/21 04:59:49;;;;;;;5.63;4.33;;;15.00;99.90;;;;;;5073765;28;20539;-64
2021/08/21 05:02:15;;;;;;;4.37;3.87;;;15.00;99.90;;;;;;5074179;28;20199;-64
2021/08/21 05:04:41;;;;;;;5.10;4.50;;;15.10;99.90;;;;;;5074272;28;20708;-63
2021/08/21 05:07:07;;;;;;;4.90;4.40;;;15.30;99.90;;;;;;5073225;28;20215;-62
2021/08/21 05:09:33;;;;;;;5.00;4.50;;;15.40;99.90;;;;;;5074093;28;20203;-65
2021/08/21 05:11:59;;;;;;;4.00;3.70;;;15.60;99.90;;;;;;5074125;28;20403;-64
2021/08/21 05:14:24;;;;;;;4.80;4.40;;;15.70;99.90;;;;;;5055329;28;20606;-65
2021/08/21 05:16:50;;;;;;;4.10;3.70;;;15.80;99.90;;;;;;5053737;28;20395;-63
2021/08/21 05:19:33;;;;;;;5.23;4.00;;;15.90;99.90;;;;;;5054100;28;20207;-64
2021/08/21 05:22:20;;;;;;;4.03;3.70;;;16.10;99.90;;;;;;5061847;28;20555;-62
2021/08/21 05:24:45;;;;;;;4.00;3.70;;;16.20;99.90;;;;;;5073993;28;20506;-65
2021/08/21 05:27:11;;;;;;;5.03;4.53;;;16.30;99.90;;;;;;5073567;28;20449;-64
2021/08/21 05:29:36;;;;;;;3.73;3.30;;;16.40;99.90;;;;;;5073601;28;20197;-65
2021/08/21 05:32:04;;;;;;;3.33;3.03;;;16.40;99.90;;;;;;5073680;28;20434;-63
2021/08/21 05:34:29;;;;;;;3.23;2.93;;;16.40;99.90;;;;;;5073664;28;20191;-64
2021/08/21 05:36:55;;;;;;;4.00;3.60;;;16.60;99.90;;;;;;5059373;28;20425;-64
2021/08/21 05:39:20;;;;;;;3.37;3.07;;;16.60;99.90;;;;;;5053624;28;20202;-65
2021/08/21 05:41:46;;;;;;;4.37;3.97;;;16.70;99.90;;;;;;5054142;28;20267;-62
2021/08/21 05:44:12;;;;;;;3.40;2.97;;;16.70;99.90;;;;;;5053753;28;20637;-62
2021/08/21 05:46:37;;;;;;;3.10;2.90;;;16.80;99.90;;;;;;5053340;28;20172;-65
2021/08/21 05:49:03;;;;;;;10.03;3.70;;;16.80;99.90;;;;;;5053471;28;20243;-64
2021/08/21 05:51:29;;;;;;;4.43;4.03;;;16.90;99.90;;;;;;5068271;28;20217;-65
2021/08/21 05:53:56;;;;;;;3.27;2.97;;;16.90;99.90;;;;;;5073470;28;20185;-63
2021/08/21 05:56:21;;;;;;;3.33;3.03;;;16.90;99.90;;;;;;5073497;28;20449;-66
2021/08/21 05:58:47;;;;;;;3.50;3.00;;;17.00;99.90;;;;;;5072872;28;20460;-64
2021/08/21 06:01:13;;;;;;;3.47;2.80;;;17.10;99.90;;;;;;5073172;28;20656;-66
2021/08/21 06:03:38;;;;;;;2.57;2.47;;;17.20;99.90;;;;;;5072935;28;20225;-62
2021/08/21 06:06:04;;;;;;;3.20;2.90;;;17.30;99.90;;;;;;5058964;28;20184;-65
2021/08/21 06:08:29;;;;;;;3.23;2.93;;;17.40;99.90;;;;;;5052751;28;20216;-62
2021/08/21 06:10:57;;;;;;;5.97;3.67;;;17.50;99.90;;;;;;5053569;28;20183;-65
2021/08/21 06:13:23;;;;;;;2.57;2.43;;;17.60;99.90;;;;;;5053295;28;20217;-65
2021/08/21 06:15:48;;;;;;;3.80;3.33;;;17.70;99.90;;;;;;5053180;28;20442;-65
2021/08/21 06:18:14;;;;;;;3.10;2.90;;;17.80;99.90;;;;;;5069964;28;20441;-66
2021/08/21 06:20:40;;;;;;;3.80;3.47;;;18.00;99.90;;;;;;5073081;28;20246;-65
2021/08/21 06:23:05;;;;;;;2.70;2.50;;;18.20;99.90;;;;;;5073117;28;20203;-64
2021/08/21 06:25:31;;;;;;;3.20;3.00;;;18.40;99.90;;;;;;5073462;28;20200;-64
2021/08/21 06:27:57;;;;;;;3.20;2.90;;;18.50;99.90;;;;;;5072628;28;20173;-65
2021/08/21 06:30:23;;;;;;;2.70;2.50;;;18.60;99.90;;;;;;5073431;28;20243;-62
2021/08/21 06:32:49;;;;;;;4.10;3.47;;;18.70;99.90;;;;;;5055497;28;20435;-63
2021/08/21 06:35:14;;;;;;;2.80;2.60;;;18.70;99.90;;;;;;5053020;28;20177;-65
2021/08/21 06:37:40;;;;;;;3.83;3.13;;;18.80;99.90;;;;;;5052534;28;20174;-65
2021/08/21 06:40:06;;;;;;;2.90;2.70;;;18.90;99.90;;;;;;5052576;28;21081;-62
2021/08/21 06:42:32;;;;;;;3.13;2.83;;;18.90;99.90;;;;;;5052902;28;20216;-65
2021/08/21 06:44:58;;;;;;;3.87;3.17;;;18.90;99.90;;;;;;5055251;28;20813;-63
2021/08/21 06:47:23;;;;;;;3.37;3.07;;;18.90;99.90;;;;;;5072276;28;20635;-63
2021/08/21 06:49:49;;;;;;;4.23;3.17;;;18.90;99.90;;;;;;5072502;28;20219;-65
2021/08/21 06:52:15;;;;;;;2.50;2.27;;;19.10;99.90;;;;;;5072620;28;20204;-65
2021/08/21 06:54:40;;;;;;;3.27;2.97;;;19.30;99.90;;;;;;5072450;28;20242;-66
2021/08/21 06:57:06;;;;;;;2.60;2.50;;;19.60;99.90;;;;;;5072281;28;20176;-63
2021/08/21 06:59:31;;;;;;;3.00;2.70;;;19.80;99.90;;;;;;5070878;28;20196;-66
2021/08/21 07:01:57;;;;;;;4.80;2.60;;;20.00;99.90;;;;;;5052420;28;20201;-63
2021/08/21 07:04:23;;;;;;;2.80;2.60;;;20.10;99.90;;;;;;5052516;28;20201;-63
2021/08/21 07:06:48;;;;;;;3.37;2.53;;;20.30;99.90;;;;;;5058486;28;20172;-63
2021/08/21 07:09:14;;;;;;;3.13;2.70;;;20.50;99.90;;;;;;5072518;28;20612;-65
2021/08/21 07:11:39;;;;;;;2.53;2.40;;;20.60;99.90;;;;;;5072749;28;20173;-64
2021/08/21 07:14:05;;;;;;;6.30;3.07;;;20.90;99.90;;;;;;5072540;28;20176;-63
2021/08/21 07:16:31;;;;;;;4.80;3.00;;;21.10;99.90;;;;;;5072533;28;20295;-65
2021/08/21 07:18:56;;;;;;;5.50;3.60;;;21.30;99.90;;;;;;5072640;28;20235;-63
2021/08/21 07:21:23;;;;;;;8.33;5.97;;;21.50;99.90;;;;;;5067292;28;20194;-67
2021/08/21 07:23:49;;;;;;;3.20;2.90;;;21.60;99.90;;;;;;5052145;28;20214;-63
2021/08/21 07:26:14;;;;;;;2.80;2.60;;;21.70;99.90;;;;;;5052437;28;20414;-65
2021/08/21 07:28:40;;;;;;;2.67;2.47;;;21.70;99.90;;;;;;5052321;28;20995;-64
2021/08/21 07:31:06;;;;;;;2.37;2.27;;;21.80;99.90;;;;;;5056020;28;20216;-66
2021/08/21 07:33:31;;;;;;;2.50;2.30;;;22.00;99.90;;;;;;5055965;28;20181;-65
2021/08/21 07:35:58;;;;;;;3.10;2.67;;;22.30;99.90;;;;;;5065230;28;20655;-63
2021/08/21 07:38:23;;;;;;;2.60;2.23;;;22.80;99.90;;;;;;5075373;28;20196;-65
2021/08/21 07:40:50;;;;;;;2.67;2.47;;;23.60;99.90;;;;;;5076034;28;20851;-66
2021/08/21 07:43:16;;;;;;;2.63;2.30;;;24.50;99.90;;;;;;5075616;28;20199;-64
2021/08/21 07:45:43;;;;;;;2.60;2.33;;;25.40;99.40;;;;;;5075941;28;20416;-65
2021/08/21 07:48:08;;;;;;;2.40;2.20;;;26.20;97.70;;;;;;5075159;28;20720;-62
2021/08/21 07:50:34;;;;;;;3.33;2.73;;;27.10;96.50;;;;;;5065626;28;20415;-62
2021/08/21 07:52:59;;;;;;;3.20;2.90;;;27.80;95.30;;;;;;5054081;28;20169;-65
2021/08/21 07:55:25;;;;;;;3.10;2.80;;;28.80;93.10;;;;;;5055731;28;20231;-63
2021/08/21 07:57:51;;;;;;;3.37;3.17;;;29.70;91.90;;;;;;5055192;28;20564;-65
2021/08/21 08:00:17;;;;;;;3.10;2.80;;;30.50;90.10;;;;;;5055711;28;20683;-62
2021/08/21 08:02:45;;;;;;;3.20;2.97;;;31.30;87.90;;;;;;5055697;28;20177;-66
2021/08/21 08:05:11;;;;;;;2.73;2.53;;;31.90;84.80;;;;;;5057998;28;20807;-63
2021/08/21 08:07:37;;;;;;;3.63;3.33;;;32.30;82.80;;;;;;5054909;28;20463;-64
2021/08/21 08:10:03;;;;;;;2.90;2.70;;;32.90;80.60;;;;;;5055482;28;20201;-66
2021/08/21 08:12:29;;;;;;;3.43;3.23;;;33.40;78.80;;;;;;5055377;28;20178;-64
2021/08/21 08:14:54;;;;;;;2.93;2.73;;;34.00;77.50;;;;;;5055319;28;20419;-64
2021/08/21 08:17:20;;;;;;;3.97;3.30;;;34.60;75.10;;;;;;5054865;28;20170;-64
2021/08/21 08:19:46;;;;;;;2.63;2.43;;;35.30;73.40;;;;;;5061760;28;20627;-66
2021/08/21 08:22:11;;;;;;;2.83;2.60;;;35.80;71.40;;;;;;5064853;28;20204;-62
2021/08/21 08:24:37;;;;;;;3.07;2.87;;;36.20;67.70;;;;;;5054700;28;20283;-64
2021/08/21 08:27:03;;;;;;;3.13;2.93;;;36.70;65.70;;;;;;5054374;28;20213;-64
2021/08/21 08:29:29;;;;;;;3.87;2.70;;;37.10;63.70;;;;;;5054874;28;20668;-64
2021/08/21 08:31:54;;;;;;;3.43;3.23;;;37.20;62.30;;;;;;5054895;28;20676;-66
2021/08/21 08:34:20;;;;;;;2.90;2.70;;;36.90;62.40;;;;;;5055283;28;20208;-64
2021/08/21 08:36:46;;;;;;;3.63;3.07;;;37.00;61.80;;;;;;5054430;28;20174;-66
2021/08/21 08:39:11;;;;;;;3.50;3.20;;;37.20;61.00;;;;;;5054947;28;20193;-64
2021/08/21 08:41:41;;;;;;;3.47;3.20;;;37.10;60.50;;;;;;5053899;28;20262;-63
2021/08/21 08:44:10;;;;;;;4.00;3.40;;;36.70;60.40;;;;;;5064471;28;20188;-63
2021/08/21 08:46:37;;;;;;;2.53;2.40;;;36.50;62.20;;;;;;5074228;28;20782;-64
2021/08/21 08:49:03;;;;;;;3.37;3.13;;;36.30;63.10;;;;;;5074205;28;20431;-62
2021/08/21 08:51:32;;;;;;;3.03;2.83;;;36.40;62.10;;;;;;5074176;28;20533;-66
2021/08/21 08:53:57;;;;;;;3.10;2.90;;;36.50;62.20;;;;;;5074508;28;20215;-61
2021/08/21 08:56:23;;;;;;;3.50;3.20;;;36.50;61.10;;;;;;5074388;28;20423;-64
2021/08/21 08:58:49;;;;;;;3.30;3.10;;;36.60;60.60;;;;;;5063925;28;20201;-61
2021/08/21 09:01:14;;;;;;;2.60;2.50;;;36.90;61.20;;;;;;5054414;28;20349;-65
2021/08/21 09:03:40;;;;;;;3.43;3.23;;;37.20;61.00;;;;;;5054200;28;20181;-63
2021/08/21 09:06:06;;;;;;;2.90;2.70;;;37.60;59.90;;;;;;5054305;28;20177;-66
2021/08/21 09:08:33;;;;;;;2.97;2.80;;;37.70;59.00;;;;;;5053779;28;20290;-65
2021/08/21 09:11:22;;;;;;;3.50;3.27;;;38.00;58.80;;;;;;5054020;28;20953;-65
2021/08/21 09:13:48;;;;;;;3.30;3.10;;;38.50;57.60;;;;;;5073019;28;20441;-62
2021/08/21 09:16:25;;;;;;;2.77;2.57;;;38.20;57.70;;;;;;5073128;28;20493;-66
2021/08/21 09:19:05;;;;;;;4.00;3.80;;;37.90;58.30;;;;;;5073672;28;20423;-63
2021/08/21 09:21:32;;;;;;;3.43;3.23;;;38.10;58.40;;;;;;5073969;28;20407;-65
2021/08/21 09:23:58;;;;;;;3.80;3.60;;;38.40;57.60;;;;;;5074121;28;20419;-65
2021/08/21 09:26:30;;;;;;;3.50;3.20;;;38.80;57.50;;;;;;5071271;28;20417;-65
2021/08/21 09:28:58;;;;;;;3.73;3.53;;;39.10;57.70;;;;;;5053562;28;20193;-63
2021/08/21 09:31:28;;;;;;;3.83;3.33;;;39.30;56.40;;;;;;5053913;28;21041;-66
2021/08/21 09:33:59;;;;;;;3.50;3.30;;;39.40;55.60;;;;;;5053874;28;20494;-64
2021/08/21 09:36:38;;;;;;;3.37;3.17;;;39.40;54.80;;;;;;5053432;28;20424;-65
2021/08/21 09:39:06;;;;;;;3.33;3.20;;;39.50;55.20;;;;;;5053573;28;20431;-66
2021/08/21 09:41:51;;;;;;;3.50;3.23;;;39.40;55.40;;;;;;5054515;28;20422;-64
2021/08/21 09:44:28;;;;;;;4.03;3.73;;;39.30;55.30;;;;;;5053396;28;20420;-66
2021/08/21 09:47:36;;;;;;;4.40;4.10;;;39.30;54.80;;;;;;5053126;28;20403;-63
2021/08/21 09:50:15;;;;;;;3.80;3.60;;;39.40;56.60;;;;;;5052961;28;20428;-64
2021/08/21 09:52:42;;;;;;;3.93;3.73;;;39.50;55.20;;;;;;5053295;28;20828;-65
2021/08/21 09:55:19;;;;;;;4.00;3.70;;;39.70;55.10;;;;;;5053392;28;20407;-63
2021/08/21 09:58:01;;;;;;;4.53;4.13;;;39.80;54.70;;;;;;5068536;28;20506;-65
2021/08/21 10:00:28;;;;;;;4.37;4.07;;;39.80;53.60;;;;;;5073170;28;20438;-61
2021/08/21 10:02:56;;;;;;;2.63;2.53;;;39.70;53.10;;;;;;5073071;28;20987;-67
2021/08/21 10:05:22;;;;;;;3.43;3.13;;;39.40;52.80;;;;;;5073280;28;20441;-63
2021/08/21 10:07:54;;;;;;;3.27;3.07;;;39.20;52.60;;;;;;5072661;28;20399;-65
2021/08/21 10:10:23;;;;;;;6.67;6.17;;;39.20;53.00;;;;;;5066949;28;20407;-62
2021/08/21 10:12:53;;;;;;;4.50;4.20;;;39.20;53.60;;;;;;5053830;28;20415;-64
2021/08/21 10:15:21;;;;;;;4.30;4.00;;;39.10;53.30;;;;;;5053081;28;20752;-62
2021/08/21 10:17:47;;;;;;;3.90;3.70;;;38.60;53.10;;;;;;5052784;28;20403;-65
2021/08/21 10:20:13;;;;;;;3.30;3.10;;;38.30;53.50;;;;;;5053020;28;20434;-61
2021/08/21 10:22:40;;;;;;;3.93;3.63;;;38.20;53.90;;;;;;5053177;28;20499;-66
2021/08/21 10:25:08;;;;;;;4.03;3.40;;;38.10;53.80;;;;;;5058581;28;20426;-65
2021/08/21 10:27:39;;;;;;;2.80;2.70;;;38.00;54.30;;;;;;5072286;28;20415;-64
2021/08/21 10:30:17;;;;;;;3.87;3.57;;;38.20;53.70;;;;;;5072644;28;20497;-60
2021/08/21 10:32:45;;;;;;;4.57;4.27;;;38.50;53.20;;;;;;5072812;28;20431;-65
2021/08/21 10:35:13;;;;;;;3.90;3.57;;;38.50;53.50;;;;;;5072779;28;20453;-63
2021/08/21 10:37:44;;;;;;;3.37;3.17;;;37.90;54.10;;;;;;5072458;28;20407;-66
2021/08/21 10:40:37;;;;;;;3.77;3.47;;;37.30;54.80;;;;;;5071928;28;20435;-61
2021/08/21 10:43:05;;;;;;;3.53;3.33;;;37.20;54.80;;;;;;5071178;28;20479;-62
2021/08/21 10:45:41;;;;;;;3.70;3.40;;;37.20;55.70;;;;;;5072731;28;20403;-63
2021/08/21 10:48:11;;;;;;;4.30;3.90;;;37.20;55.40;;;;;;5072583;28;20435;-65
2021/08/21 10:50:44;;;;;;;4.67;4.33;;;37.10;55.30;;;;;;5072637;28;20544;-62
2021/08/21 10:53:20;;;;;;;3.60;3.40;;;37.00;54.70;;;;;;5072850;28;20491;-62
2021/08/21 10:55:45;;;;;;;4.07;3.77;;;36.80;55.40;;;;;;5072512;28;20477;-64
2021/08/21 10:58:30;;;;;;;4.13;3.83;;;36.30;55.70;;;;;;5071843;28;20978;-65
2021/08/21 11:00:58;;;;;;;4.53;4.13;;;36.30;55.90;;;;;;5052920;28;20552;-63
2021/08/21 11:03:23;;;;;;;4.97;3.50;;;36.50;55.80;;;;;;5052785;28;20460;-63
2021/08/21 11:06:31;;;;;;;3.60;3.40;;;36.60;55.90;;;;;;5056279;28;20411;-63
2021/08/21 11:09:02;;;;;;;4.43;4.00;;;36.00;55.70;;;;;;5053138;28;20295;-62
2021/08/21 11:14:06;;;;;;;4.20;3.90;;;35.60;57.10;;;;;;5056584;28;20851;-65
2021/08/21 11:16:53;;;;;;;4.37;3.97;;;35.10;59.00;;;;;;5056263;28;20778;-65
2021/08/21 11:19:25;;;;;;;4.40;4.00;;;34.30;58.50;;;;;;5056149;28;20423;-65
2021/08/21 11:21:52;;;;;;;4.30;4.00;;;33.60;60.50;;;;;;5056205;28;20382;-64
2021/08/21 11:24:27;;;;;;;4.13;3.83;;;33.10;63.10;;;;;;5062683;28;20418;-64
2021/08/21 11:27:24;;;;;;;4.33;3.90;;;32.60;60.60;;;;;;5074781;28;20419;-65
2021/08/21 11:30:15;;;;;;;4.10;3.70;;;32.10;62.30;;;;;;5076438;28;20756;-61
2021/08/21 11:32:43;;;;;;;4.50;4.10;;;31.50;64.10;;;;;;5075716;28;20423;-62
2021/08/21 11:35:35;;;;;;;4.60;4.20;;;31.00;66.60;;;;;;5075801;28;20414;-62
2021/08/21 11:38:08;;;;;;;5.10;4.00;;;30.70;66.20;;;;;;5068041;28;20425;-63
2021/08/21 11:40:38;;;;;;;4.37;3.97;;;30.40;70.00;;;;;;5056095;28;20418;-65
2021/08/21 11:43:07;;;;;;;4.60;4.20;;;30.40;70.90;;;;;;5055901;28;20428;-62
2021/08/21 11:45:34;;;;;;;4.10;3.80;;;30.40;71.30;;;;;;5055929;28;20400;-63
2021/08/21 11:47:59;;;;;;;13.60;4.80;;;30.40;70.10;;;;;;5055361;28;20378;-66
2021/08/21 11:50:45;;;;;;;4.70;4.30;;;30.30;70.80;;;;;;5055846;28;20402;-63
2021/08/21 11:53:16;;;;;;;4.00;3.70;;;30.30;69.00;;;;;;5057556;28;20648;-64
2021/08/21 11:55:42;;;;;;;4.43;3.60;;;30.00;70.60;;;;;;5075809;28;20388;-63
2021/08/21 11:58:08;;;;;;;4.67;4.27;;;29.80;70.40;;;;;;5075014;28;20780;-64
2021/08/21 12:00:36;;;;;;;4.50;3.80;;;29.60;74.50;;;;;;5075709;28;20391;-61
2021/08/21 12:03:07;;;;;;;4.90;4.00;;;29.50;75.50;;;;;;5057098;28;20393;-65
2021/08/21 12:05:36;;;;;;;3.63;3.33;;;29.40;73.60;;;;;;5075553;28;20407;-64
2021/08/21 12:08:23;;;;;;;3.90;3.60;;;29.40;73.80;;;;;;5074464;28;20396;-66
2021/08/21 12:10:56;;;;;;;3.73;3.43;;;29.50;73.60;;;;;;5075216;28;20522;-66
2021/08/21 12:13:28;;;;;;;4.47;3.70;;;29.50;75.20;;;;;;5075506;28;20476;-64
2021/08/21 12:15:56;;;;;;;4.07;3.73;;;29.50;75.00;;;;;;5075282;28;20366;-66
2021/08/21 12:18:24;;;;;;;3.37;3.17;;;29.60;73.90;;;;;;5074880;28;20437;-66
2021/08/21 12:20:51;;;;;;;3.40;3.20;;;29.70;73.20;;;;;;5075363;28;20390;-66
2021/08/21 12:23:17;;;;;;;4.63;4.23;;;29.70;72.60;;;;;;5061556;28;20402;-62
2021/08/21 12:25:54;;;;;;;4.20;3.80;;;29.70;73.80;;;;;;5055230;28;20420;-63
2021/08/21 12:28:25;;;;;;;4.27;3.47;;;29.80;74.70;;;;;;5073524;28;20449;-65
2021/08/21 12:31:02;;;;;;;3.63;3.33;;;29.80;73.70;;;;;;5074955;28;20876;-64
2021/08/21 12:33:36;;;;;;;3.90;3.60;;;29.90;72.30;;;;;;5075049;28;20484;-63
2021/08/21 12:36:22;;;;;;;3.60;3.30;;;29.90;72.00;;;;;;5075039;28;20403;-66
2021/08/21 12:39:04;;;;;;;6.73;3.27;;;29.90;71.00;;;;;;5055827;28;20931;-61
2021/08/21 12:41:31;;;;;;;3.63;3.33;;;29.90;72.30;;;;;;5054632;28;20415;-64
2021/08/21 12:44:16;;;;;;;4.73;4.33;;;29.90;72.20;;;;;;5054883;28;20412;-65
2021/08/21 12:46:56;;;;;;;5.43;4.07;;;29.90;74.40;;;;;;5054360;28;20885;-63
2021/08/21 12:49:36;;;;;;;3.33;3.03;;;29.90;71.60;;;;;;5054533;28;20901;-64
2021/08/21 12:52:10;;;;;;;3.67;3.37;;;29.90;69.90;;;;;;5055865;28;20913;-66
2021/08/21 12:54:41;;;;;;;4.20;3.80;;;29.80;70.90;;;;;;5054333;28;20428;-66
2021/08/21 12:57:07;;;;;;;3.80;3.50;;;29.50;73.50;;;;;;5054227;28;20404;-63